createdAt,value
2023-05-21T00:00:16.912Z,18.10
2023-05-21T00:05:21.518Z,18.10
2023-05-21T00:10:23.813Z,18.10
2023-05-21T00:15:26.288Z,18.20
2023-05-21T00:20:29.418Z,18.20
2023-05-21T00:25:32.118Z,18.20
2023-05-21T00:30:34.386Z,18.20
2023-05-21T00:35:37.047Z,18.20
2023-05-21T00:40:41.375Z,18.20
2023-05-21T00:45:46.757Z,18.20
2023-05-21T00:50:51.239Z,18.00
2023-05-21T00:55:53.749Z,18.00
2023-05-21T01:00:56.699Z,18.00
2023-05-21T01:06:00.397Z,18.00
2023-05-21T01:11:04.414Z,17.90
2023-05-21T01:16:08.883Z,17.90
2023-05-21T01:21:11.464Z,17.80
2023-05-21T01:26:13.810Z,17.80
2023-05-21T01:31:31.371Z,17.80
2023-05-21T01:36:42.243Z,17.80
2023-05-21T01:41:46.492Z,17.70
2023-05-21T01:46:49.867Z,17.70
2023-05-21T01:51:52.815Z,17.60
2023-05-21T01:56:55.803Z,17.60
2023-05-21T02:01:58.408Z,17.70
2023-05-21T02:07:00.878Z,17.60
2023-05-21T02:12:04.084Z,17.40
2023-05-21T02:17:08.194Z,17.40
2023-05-21T02:22:11.350Z,17.50
2023-05-21T02:27:13.814Z,17.40
2023-05-21T02:32:17.032Z,17.30
2023-05-21T02:37:20.419Z,17.30
2023-05-21T02:42:23.873Z,17.30
2023-05-21T02:47:26.673Z,17.30
2023-05-21T02:52:29.300Z,17.30
2023-05-21T02:57:31.691Z,17.30
2023-05-21T03:02:34.187Z,17.20
2023-05-21T03:07:36.542Z,17.20
2023-05-21T03:12:39.390Z,17.20
2023-05-21T03:17:44.537Z,17.30
2023-05-21T03:22:48.349Z,17.40
2023-05-21T03:27:50.919Z,17.40
2023-05-21T03:33:14.341Z,17.50
2023-05-21T03:38:18.695Z,17.40
2023-05-21T03:43:21.024Z,17.40
2023-05-21T03:48:23.804Z,17.40
2023-05-21T03:53:26.288Z,17.60
2023-05-21T03:58:28.801Z,17.60
2023-05-21T04:03:33.357Z,17.70
2023-05-21T04:08:36.744Z,17.60
2023-05-21T04:13:39.181Z,17.70
2023-05-21T04:18:44.157Z,17.80
2023-05-21T04:23:48.496Z,17.80
2023-05-21T04:29:03.822Z,17.90
2023-05-21T04:34:06.523Z,17.90
2023-05-21T04:39:08.800Z,17.80
2023-05-21T04:44:15.219Z,18.00
2023-05-21T04:49:21.039Z,18.10
2023-05-21T04:54:23.579Z,18.30
2023-05-21T04:59:25.996Z,18.60
2023-05-21T05:04:28.326Z,18.60
2023-05-21T05:09:31.855Z,18.70
2023-05-21T05:14:34.205Z,18.90
2023-05-21T05:19:36.726Z,19.10
2023-05-21T05:24:39.127Z,19.30
2023-05-21T05:29:41.455Z,19.30
2023-05-21T05:34:47.064Z,19.50
2023-05-21T05:39:49.451Z,19.60
2023-05-21T05:44:52.189Z,19.70
2023-05-21T05:49:54.577Z,19.90
2023-05-21T05:54:57.119Z,19.90
2023-05-21T05:59:59.451Z,20.00
2023-05-21T06:05:03.632Z,20.10
2023-05-21T06:10:07.875Z,20.40
2023-05-21T06:15:10.433Z,20.40
2023-05-21T06:20:13.085Z,20.60
2023-05-21T06:25:16.247Z,20.70
2023-05-21T06:30:18.687Z,21.10
2023-05-21T06:35:22.028Z,21.50
2023-05-21T06:40:24.577Z,21.50
2023-05-21T06:45:30.527Z,21.50
2023-05-21T06:50:36.834Z,21.50
2023-05-21T06:55:39.540Z,21.60
2023-05-21T07:00:50.574Z,21.70
2023-05-21T07:05:53.938Z,21.80
2023-05-21T07:10:56.988Z,21.70
2023-05-21T07:16:00.141Z,22.00
2023-05-21T07:21:02.719Z,22.40
2023-05-21T07:26:05.784Z,22.70
2023-05-21T07:31:08.560Z,23.20
2023-05-21T07:36:16.276Z,23.70
2023-05-21T07:41:18.994Z,23.60
2023-05-21T07:46:22.729Z,23.60
2023-05-21T07:51:29.374Z,23.80
2023-05-21T07:56:32.559Z,24.10
2023-05-21T08:01:37.533Z,23.60
2023-05-21T08:06:40.100Z,23.40
2023-05-21T08:11:42.834Z,23.50
2023-05-21T08:16:45.546Z,23.30
2023-05-21T08:21:47.907Z,23.20
2023-05-21T08:26:51.099Z,22.90
2023-05-21T08:31:54.411Z,23.00
2023-05-21T08:36:56.880Z,22.70
2023-05-21T08:47:37.380Z,22.70
2023-05-21T08:52:42.170Z,22.70
2023-05-21T08:57:45.444Z,22.70
2023-05-21T09:02:54.718Z,22.70
2023-05-21T09:08:20.031Z,22.80
2023-05-21T09:13:33.150Z,22.90
2023-05-21T09:18:38.998Z,23.00
2023-05-21T09:23:48.230Z,22.90
2023-05-21T09:28:51.864Z,22.80
2023-05-21T09:33:56.366Z,22.90
2023-05-21T09:39:01.103Z,22.90
2023-05-21T09:44:04.204Z,22.90
2023-05-21T09:49:07.348Z,23.00
2023-05-21T09:54:12.165Z,22.90
2023-05-21T09:59:14.510Z,23.00
2023-05-21T10:04:17.542Z,23.00
2023-05-21T10:09:20.305Z,23.00
2023-05-21T10:14:25.624Z,23.00
2023-05-21T10:19:30.661Z,23.10
2023-05-21T10:24:34.054Z,23.10
2023-05-21T10:29:38.699Z,23.10
2023-05-21T10:34:41.752Z,23.20
2023-05-21T10:39:46.031Z,23.20
2023-05-21T10:45:27.863Z,23.20
2023-05-21T10:50:58.771Z,23.20
2023-05-21T11:01:16.547Z,23.30
2023-05-21T11:06:25.325Z,23.20
2023-05-21T11:17:01.702Z,23.40
2023-05-21T11:27:42.559Z,23.60
2023-05-21T11:38:19.140Z,23.70
2023-05-21T11:43:21.589Z,23.60
2023-05-21T11:48:27.680Z,23.60
2023-05-21T11:53:30.786Z,23.40
2023-05-21T11:58:35.462Z,23.50
2023-05-21T12:03:37.930Z,23.60
2023-05-21T12:08:40.429Z,23.20
2023-05-21T12:13:42.866Z,22.80
2023-05-21T12:18:45.443Z,22.70
2023-05-21T12:23:47.969Z,22.50
2023-05-21T12:28:50.431Z,22.20
2023-05-21T12:33:53.078Z,21.80
2023-05-21T12:38:56.783Z,21.60
2023-05-21T12:43:59.198Z,21.50
2023-05-21T12:49:01.627Z,21.60
2023-05-21T12:54:03.940Z,21.60
2023-05-21T12:59:12.722Z,21.70
2023-05-21T13:04:15.470Z,21.70
2023-05-21T13:09:17.810Z,22.00
2023-05-21T13:14:20.103Z,22.20
2023-05-21T13:19:22.456Z,22.20
2023-05-21T13:24:24.869Z,22.20
2023-05-21T13:29:27.326Z,22.20
2023-05-21T13:34:29.636Z,22.00
2023-05-21T13:39:31.884Z,21.90
2023-05-21T13:44:36.313Z,22.00
2023-05-21T13:49:39.362Z,21.90
2023-05-21T13:54:42.785Z,21.90
2023-05-21T13:59:45.347Z,21.80
2023-05-21T14:04:47.588Z,21.60
2023-05-21T14:09:50.095Z,21.60
2023-05-21T14:14:52.475Z,21.50
2023-05-21T14:19:55.866Z,21.50
2023-05-21T14:24:58.160Z,21.60
2023-05-21T14:30:00.449Z,21.60
2023-05-21T14:35:02.868Z,21.60
2023-05-21T14:40:07.882Z,21.50
2023-05-21T14:45:18.788Z,21.50
2023-05-21T14:50:21.843Z,21.50
2023-05-21T14:55:24.104Z,21.40
2023-05-21T15:00:26.699Z,21.40
2023-05-21T15:05:29.727Z,21.30
2023-05-21T15:10:32.418Z,21.30
2023-05-21T15:15:35.872Z,21.20
2023-05-21T15:20:38.500Z,21.10
2023-05-21T15:25:40.861Z,21.00
2023-05-21T15:30:43.204Z,21.00
2023-05-21T15:35:45.882Z,21.10
2023-05-21T15:40:48.400Z,21.10
2023-05-21T15:45:50.783Z,21.10
2023-05-21T15:50:53.172Z,21.00
2023-05-21T15:55:56.740Z,21.00
2023-05-21T16:00:59.155Z,21.00
2023-05-21T16:06:01.557Z,21.00
2023-05-21T16:11:03.979Z,20.80
2023-05-21T16:16:06.567Z,20.90
2023-05-21T16:21:08.900Z,21.00
2023-05-21T16:26:11.326Z,21.00
2023-05-21T16:31:13.991Z,21.00
2023-05-21T16:36:17.983Z,21.00
2023-05-21T16:41:20.419Z,21.00
2023-05-21T16:46:22.878Z,20.80
2023-05-21T16:51:25.290Z,20.80
2023-05-21T16:56:27.699Z,20.70
2023-05-21T17:01:30.107Z,20.60
2023-05-21T17:06:33.905Z,20.40
2023-05-21T17:11:36.263Z,20.40
2023-05-21T17:16:38.763Z,20.30
2023-05-21T17:21:41.178Z,20.30
2023-05-21T17:26:43.508Z,20.10
2023-05-21T17:31:46.059Z,20.10
2023-05-21T17:36:48.623Z,20.00
2023-05-21T17:41:51.559Z,20.00
2023-05-21T17:46:53.942Z,19.90
2023-05-21T17:51:58.679Z,19.80
2023-05-21T17:57:01.008Z,19.70
2023-05-21T18:02:03.309Z,19.70
2023-05-21T18:07:05.966Z,19.50
2023-05-21T18:12:08.428Z,19.50
2023-05-21T18:17:10.799Z,19.40
2023-05-21T18:22:13.162Z,19.40
2023-05-21T18:27:15.954Z,19.40
2023-05-21T18:32:18.352Z,19.50
2023-05-21T18:37:20.732Z,19.50
2023-05-21T18:42:23.298Z,19.50
2023-05-21T18:47:25.658Z,19.50
2023-05-21T18:52:28.069Z,19.40
2023-05-21T18:57:31.340Z,19.40
2023-05-21T19:02:33.830Z,19.40
2023-05-21T19:07:36.496Z,19.30
2023-05-21T19:12:39.687Z,19.20
2023-05-21T19:17:42.140Z,19.20
2023-05-21T19:22:44.699Z,19.10
2023-05-21T19:27:47.039Z,19.10
2023-05-21T19:32:49.474Z,19.10
2023-05-21T19:37:51.861Z,19.10
2023-05-21T19:42:54.150Z,19.20
2023-05-21T19:47:56.961Z,19.20
2023-05-21T19:52:59.309Z,19.20
2023-05-21T19:58:02.032Z,19.20
2023-05-21T20:03:04.524Z,19.20
2023-05-21T20:08:06.833Z,19.20
2023-05-21T20:13:09.249Z,19.20
2023-05-21T20:18:13.012Z,19.10
2023-05-21T20:23:15.496Z,19.10
2023-05-21T20:28:19.400Z,19.10
2023-05-21T20:33:23.225Z,19.10
2023-05-21T20:38:26.262Z,19.10
2023-05-21T20:43:28.523Z,19.10
2023-05-21T20:48:32.190Z,19.10
2023-05-21T20:53:34.470Z,19.20
2023-05-21T20:58:36.804Z,19.10
2023-05-21T21:03:41.310Z,19.00
2023-05-21T21:08:50.118Z,19.00
2023-05-21T21:13:52.395Z,19.00
2023-05-21T21:18:54.676Z,18.90
2023-05-21T21:23:57.459Z,19.00
2023-05-21T21:28:59.742Z,19.10
2023-05-21T21:34:02.041Z,19.30
2023-05-21T21:39:04.566Z,19.40
2023-05-21T21:44:07.246Z,19.50
2023-05-21T21:49:09.634Z,19.40
2023-05-21T21:54:12.301Z,19.40
2023-05-21T21:59:15.377Z,19.50
2023-05-21T22:04:17.722Z,19.30
2023-05-21T22:09:22.568Z,19.20
2023-05-21T22:14:25.271Z,19.20
2023-05-21T22:19:28.034Z,19.20
2023-05-21T22:24:32.412Z,19.10
2023-05-21T22:29:35.568Z,19.10
2023-05-21T22:34:37.836Z,19.10
2023-05-21T22:39:40.121Z,18.90
2023-05-21T22:44:42.444Z,18.80
2023-05-21T22:49:45.633Z,18.80
2023-05-21T22:54:49.537Z,18.70
2023-05-21T22:59:51.817Z,18.50
2023-05-21T23:04:54.118Z,18.50
2023-05-21T23:09:56.500Z,18.50
2023-05-21T23:14:58.775Z,18.30
2023-05-21T23:20:01.133Z,18.20
2023-05-21T23:25:04.030Z,18.00
2023-05-21T23:30:07.545Z,18.00
2023-05-21T23:35:10.177Z,18.10
2023-05-21T23:40:13.039Z,18.10
2023-05-21T23:45:17.309Z,17.90
2023-05-21T23:50:19.594Z,17.80
2023-05-21T23:55:22.177Z,17.50
